Time;durP1;ratioP1;P1;durP2;ratioP2;P2;SDS_P1;SDS_P2;PMS_P1;PMS_P2;Temp;Humidity;BMP_temperature;BMP_pressure;BME280_temperature;BME280_humidity;BME280_pressure;Samples;Min_cycle;Max_cycle;Signal;HPM_P1;HPM_P2
2023/03/24 00:00:41;;;;;;;14.52;6.22;;;;;;;;;;5114436;28;20016;-72
2023/03/24 00:03:07;;;;;;;23.83;6.15;;;;;;;;;;5114005;28;20051;-73
2023/03/24 00:05:33;;;;;;;16.02;6.10;;;;;;;;;;5114261;28;20409;-72
2023/03/24 00:08:01;;;;;;;18.33;5.97;;;;;;;;;;5113985;28;20055;-72
2023/03/24 00:10:29;;;;;;;14.02;4.90;;;;;;;;;;5114193;28;20016;-72
2023/03/24 00:12:57;;;;;;;25.27;5.75;;;;;;;;;;5113805;28;20047;-71
2023/03/24 00:15:23;;;;;;;14.90;4.88;;;;;;;;;;5114181;28;20012;-72
2023/03/24 00:17:50;;;;;;;14.68;4.90;;;;;;;;;;5113924;28;20019;-74
2023/03/24 00:20:17;;;;;;;13.82;4.50;;;;;;;;;;5113906;28;20016;-72
2023/03/24 00:22:48;;;;;;;13.60;4.97;;;;;;;;;;5113799;28;20028;-72
2023/03/24 00:25:15;;;;;;;12.18;4.18;;;;;;;;;;5113947;28;20082;-73
2023/03/24 00:27:43;;;;;;;14.23;4.50;;;;;;;;;;5113759;28;20045;-72
2023/03/24 00:30:10;;;;;;;16.50;4.20;;;;;;;;;;5113831;28;20019;-73
2023/03/24 00:32:37;;;;;;;10.20;4.10;;;;;;;;;;5113372;28;20081;-73
2023/03/24 00:35:08;;;;;;;14.40;4.43;;;;;;;;;;5113654;28;20032;-71
2023/03/24 00:37:36;;;;;;;13.48;3.67;;;;;;;;;;5113443;28;20050;-73
2023/03/24 00:40:07;;;;;;;11.38;3.92;;;;;;;;;;5113574;28;20058;-72
2023/03/24 00:42:35;;;;;;;18.58;4.70;;;;;;;;;;5113406;28;20099;-74
2023/03/24 00:45:02;;;;;;;16.45;4.00;;;;;;;;;;5113523;28;20499;-72
2023/03/24 00:47:28;;;;;;;12.02;3.88;;;;;;;;;;5113266;28;20027;-73
2023/03/24 00:49:56;;;;;;;11.77;3.83;;;;;;;;;;5113430;28;20055;-72
2023/03/24 00:52:23;;;;;;;12.48;3.78;;;;;;;;;;5113040;28;20061;-72
2023/03/24 00:54:51;;;;;;;15.20;3.78;;;;;;;;;;5113366;28;20022;-72
2023/03/24 00:57:21;;;;;;;13.70;3.55;;;;;;;;;;5113236;28;20099;-73
2023/03/24 00:59:50;;;;;;;12.38;3.40;;;;;;;;;;5113394;28;20020;-72
2023/03/24 01:02:20;;;;;;;16.80;3.83;;;;;;;;;;5108312;28;20028;-73
2023/03/24 01:04:47;;;;;;;16.20;4.30;;;;;;;;;;5113799;28;20064;-72
2023/03/24 01:07:17;;;;;;;10.90;4.00;;;;;;;;;;5114529;28;20034;-71
2023/03/24 01:09:43;;;;;;;12.88;4.47;;;;;;;;;;5113442;28;20530;-72
2023/03/24 01:12:09;;;;;;;20.40;4.80;;;;;;;;;;5113330;28;20027;-72
2023/03/24 01:14:35;;;;;;;13.93;3.63;;;;;;;;;;5113008;28;20499;-72
2023/03/24 01:17:02;;;;;;;11.82;4.00;;;;;;;;;;5113246;28;20102;-72
2023/03/24 01:19:28;;;;;;;18.45;4.10;;;;;;;;;;5112986;28;20484;-72
2023/03/24 01:21:54;;;;;;;15.30;4.03;;;;;;;;;;5112660;28;20539;-72
2023/03/24 01:24:24;;;;;;;11.77;4.07;;;;;;;;;;5112849;28;20028;-72
2023/03/24 01:26:50;;;;;;;18.55;4.50;;;;;;;;;;5112839;28;20040;-71
2023/03/24 01:29:16;;;;;;;9.43;3.97;;;;;;;;;;5112893;28;20438;-72
2023/03/24 01:31:42;;;;;;;15.43;4.40;;;;;;;;;;5113292;28;20110;-72
2023/03/24 01:34:08;;;;;;;11.80;4.50;;;;;;;;;;5113326;28;20163;-73
2023/03/24 01:36:35;;;;;;;13.95;4.88;;;;;;;;;;5113744;28;20024;-71
2023/03/24 01:39:01;;;;;;;13.75;4.40;;;;;;;;;;5113309;28;20024;-72
2023/03/24 01:41:30;;;;;;;19.40;4.90;;;;;;;;;;5113645;28;20393;-72
2023/03/24 01:43:56;;;;;;;16.05;5.05;;;;;;;;;;5112353;28;20500;-72
2023/03/24 01:46:22;;;;;;;16.63;4.88;;;;;;;;;;5112348;28;20035;-73
2023/03/24 01:48:49;;;;;;;12.77;5.00;;;;;;;;;;5112599;28;20023;-72
2023/03/24 01:51:20;;;;;;;17.33;5.47;;;;;;;;;;5112422;28;20027;-73
2023/03/24 01:53:53;;;;;;;15.38;5.65;;;;;;;;;;5112239;28;20114;-72
2023/03/24 01:56:20;;;;;;;18.02;5.32;;;;;;;;;;5112248;28;20095;-73
2023/03/24 01:58:49;;;;;;;13.98;4.93;;;;;;;;;;5112457;28;20024;-73
2023/03/24 02:01:16;;;;;;;17.40;4.50;;;;;;;;;;5112263;28;20545;-74
2023/03/24 02:03:43;;;;;;;14.95;4.95;;;;;;;;;;5112118;28;20043;-74
2023/03/24 02:06:10;;;;;;;12.20;4.32;;;;;;;;;;5112086;28;20051;-72
2023/03/24 02:08:47;;;;;;;13.45;4.82;;;;;;;;;;5112228;28;20019;-74
2023/03/24 02:11:13;;;;;;;15.30;4.90;;;;;;;;;;5112237;28;20027;-71
2023/03/24 02:13:39;;;;;;;12.50;4.53;;;;;;;;;;5111200;28;20062;-72
2023/03/24 02:16:18;;;;;;;13.90;5.13;;;;;;;;;;5112180;28;20111;-72
2023/03/24 02:18:47;;;;;;;14.13;5.00;;;;;;;;;;5112348;28;20427;-72
2023/03/24 02:21:22;;;;;;;16.13;5.07;;;;;;;;;;5112162;28;20023;-72
2023/03/24 02:23:57;;;;;;;21.52;5.40;;;;;;;;;;5111821;28;20028;-73
2023/03/24 02:26:44;;;;;;;12.90;5.50;;;;;;;;;;5112068;28;20030;-72
2023/03/24 02:29:30;;;;;;;11.85;4.60;;;;;;;;;;5112082;28;20051;-72
2023/03/24 02:31:56;;;;;;;16.55;4.63;;;;;;;;;;5111813;28;20024;-72
2023/03/24 02:34:40;;;;;;;15.13;5.03;;;;;;;;;;5112079;28;20031;-72
2023/03/24 02:37:17;;;;;;;12.80;5.03;;;;;;;;;;5111893;28;20015;-70
2023/03/24 02:40:02;;;;;;;17.13;5.55;;;;;;;;;;5111996;28;20081;-71
2023/03/24 02:42:31;;;;;;;14.23;5.35;;;;;;;;;;5111966;28;20433;-71
2023/03/24 02:45:00;;;;;;;15.48;4.90;;;;;;;;;;5111926;28;20031;-72
2023/03/24 02:47:45;;;;;;;16.95;5.40;;;;;;;;;;5112040;28;20110;-72
2023/03/24 02:50:12;;;;;;;19.95;5.93;;;;;;;;;;5109795;28;20039;-72
2023/03/24 02:52:41;;;;;;;17.02;5.45;;;;;;;;;;5111449;28;20102;-72
2023/03/24 02:55:12;;;;;;;17.27;5.65;;;;;;;;;;5123938;28;20511;-71
2023/03/24 02:57:47;;;;;;;15.98;5.40;;;;;;;;;;5132270;28;20027;-73
2023/03/24 03:00:16;;;;;;;18.95;6.07;;;;;;;;;;5131843;28;20041;-73
2023/03/24 03:02:48;;;;;;;15.85;5.90;;;;;;;;;;5131970;28;20492;-73
2023/03/24 03:05:18;;;;;;;11.07;5.07;;;;;;;;;;5132200;28;20033;-73
2023/03/24 03:07:45;;;;;;;17.90;5.90;;;;;;;;;;5132022;28;20035;-72
2023/03/24 03:10:17;;;;;;;17.50;6.05;;;;;;;;;;5134327;27;20034;-72
2023/03/24 03:12:45;;;;;;;14.23;5.30;;;;;;;;;;5135411;27;20098;-73
2023/03/24 03:15:13;;;;;;;16.27;5.20;;;;;;;;;;5135505;27;20020;-72
2023/03/24 03:17:46;;;;;;;15.43;5.13;;;;;;;;;;5135579;27;20110;-72
2023/03/24 03:20:14;;;;;;;17.90;5.57;;;;;;;;;;5135404;27;20110;-72
2023/03/24 03:22:49;;;;;;;10.65;5.10;;;;;;;;;;5135373;27;20076;-72
2023/03/24 03:25:17;;;;;;;10.63;4.72;;;;;;;;;;5135302;27;20077;-72
2023/03/24 03:27:45;;;;;;;12.23;5.15;;;;;;;;;;5135365;27;20027;-73
2023/03/24 03:30:12;;;;;;;13.18;4.50;;;;;;;;;;5135218;27;20462;-71
2023/03/24 03:32:42;;;;;;;19.35;5.32;;;;;;;;;;5135067;27;20027;-72
2023/03/24 03:35:21;;;;;;;12.93;4.53;;;;;;;;;;5135545;27;20031;-73
2023/03/24 03:37:52;;;;;;;10.30;4.32;;;;;;;;;;5135635;27;20015;-72
2023/03/24 03:40:30;;;;;;;11.50;4.70;;;;;;;;;;5135339;27;20155;-72
2023/03/24 03:42:57;;;;;;;18.10;5.20;;;;;;;;;;5135068;27;20484;-72
2023/03/24 03:45:23;;;;;;;12.98;4.90;;;;;;;;;;5134873;27;20046;-72
2023/03/24 03:47:50;;;;;;;16.20;4.97;;;;;;;;;;5135155;27;20030;-73
2023/03/24 03:50:16;;;;;;;11.07;4.50;;;;;;;;;;5134635;27;20424;-72
2023/03/24 03:52:43;;;;;;;10.48;4.68;;;;;;;;;;5133409;27;20498;-72
2023/03/24 03:55:10;;;;;;;20.33;5.07;;;;;;;;;;5134830;27;20484;-72
2023/03/24 03:57:36;;;;;;;14.38;4.70;;;;;;;;;;5134887;27;20023;-71
2023/03/24 04:00:06;;;;;;;10.73;5.13;;;;;;;;;;5134931;27;20016;-71
2023/03/24 04:02:41;;;;;;;16.00;4.50;;;;;;;;;;5121184;27;20020;-76
2023/03/24 04:05:13;;;;;;;11.05;4.65;;;;;;;;;;5110177;28;20024;-76
2023/03/24 04:07:46;;;;;;;12.70;4.78;;;;;;;;;;5113958;28;20028;-76
2023/03/24 04:10:21;;;;;;;13.77;4.80;;;;;;;;;;5110554;28;20038;-73
2023/03/24 04:12:56;;;;;;;11.27;4.15;;;;;;;;;;5113689;27;20046;-77
2023/03/24 04:15:25;;;;;;;9.68;4.38;;;;;;;;;;5114426;27;20068;-74
2023/03/24 04:17:54;;;;;;;11.40;4.95;;;;;;;;;;5111725;28;20136;-73
2023/03/24 04:20:24;;;;;;;9.52;4.60;;;;;;;;;;5107621;28;20030;-74
2023/03/24 04:23:13;;;;;;;8.48;4.20;;;;;;;;;;5108916;28;20027;-77
2023/03/24 04:25:56;;;;;;;16.77;4.75;;;;;;;;;;5114737;28;20016;-77
2023/03/24 04:28:25;;;;;;;9.63;4.60;;;;;;;;;;5114117;28;20028;-78
2023/03/24 04:31:01;;;;;;;10.68;4.70;;;;;;;;;;5107566;28;20092;-76
2023/03/24 04:33:37;;;;;;;12.60;5.05;;;;;;;;;;5114413;28;20404;-76
2023/03/24 04:36:15;;;;;;;9.60;4.50;;;;;;;;;;5114386;28;20070;-76
2023/03/24 04:38:44;;;;;;;10.75;4.88;;;;;;;;;;5112747;28;20184;-73
2023/03/24 04:41:10;;;;;;;8.57;4.63;;;;;;;;;;5113462;28;20102;-72
2023/03/24 04:43:37;;;;;;;11.02;4.68;;;;;;;;;;5113194;28;20031;-72
2023/03/24 04:46:04;;;;;;;9.40;4.78;;;;;;;;;;5113544;28;20016;-72
2023/03/24 04:48:30;;;;;;;9.38;5.03;;;;;;;;;;5113222;28;20028;-72
2023/03/24 04:50:57;;;;;;;11.05;4.90;;;;;;;;;;5115326;28;20125;-76
2023/03/24 04:53:23;;;;;;;13.63;4.63;;;;;;;;;;5116372;28;20020;-72
2023/03/24 04:55:49;;;;;;;13.38;5.13;;;;;;;;;;5114548;28;20020;-72
2023/03/24 04:58:20;;;;;;;9.57;4.35;;;;;;;;;;5113870;28;20023;-73
2023/03/24 05:00:46;;;;;;;11.38;5.25;;;;;;;;;;5113962;28;20031;-73
2023/03/24 05:03:13;;;;;;;9.68;4.80;;;;;;;;;;5113690;28;20027;-73
2023/03/24 05:05:42;;;;;;;9.45;4.75;;;;;;;;;;5114242;28;20027;-73
2023/03/24 05:08:09;;;;;;;12.88;4.72;;;;;;;;;;5116639;28;20038;-73
2023/03/24 05:10:35;;;;;;;13.95;5.07;;;;;;;;;;5113385;28;20089;-72
2023/03/24 05:13:02;;;;;;;9.48;4.40;;;;;;;;;;5113170;28;20027;-73
2023/03/24 05:15:28;;;;;;;8.25;4.53;;;;;;;;;;5113585;28;20020;-73
2023/03/24 05:17:54;;;;;;;8.45;4.90;;;;;;;;;;5113313;28;20022;-74
2023/03/24 05:20:20;;;;;;;11.88;5.63;;;;;;;;;;5113131;28;20019;-73
2023/03/24 05:22:47;;;;;;;8.63;5.55;;;;;;;;;;5112542;28;20485;-74
2023/03/24 05:25:13;;;;;;;9.80;5.00;;;;;;;;;;5113122;28;20028;-73
2023/03/24 05:27:39;;;;;;;8.25;4.65;;;;;;;;;;5112422;28;20499;-72
2023/03/24 05:30:06;;;;;;;9.30;4.65;;;;;;;;;;5112855;28;20072;-74
2023/03/24 05:32:32;;;;;;;14.05;4.97;;;;;;;;;;5112180;28;20477;-73
2023/03/24 05:34:58;;;;;;;7.93;4.70;;;;;;;;;;5112726;28;20037;-73
2023/03/24 05:37:24;;;;;;;11.85;5.13;;;;;;;;;;5112500;28;20461;-72
2023/03/24 05:39:50;;;;;;;11.45;4.97;;;;;;;;;;5112536;28;20091;-73
2023/03/24 05:42:16;;;;;;;8.68;4.32;;;;;;;;;;5112049;28;20062;-72
2023/03/24 05:44:43;;;;;;;9.27;4.78;;;;;;;;;;5112372;28;20016;-73
2023/03/24 05:47:09;;;;;;;9.50;5.40;;;;;;;;;;5112156;28;20388;-73
2023/03/24 05:49:35;;;;;;;10.60;4.82;;;;;;;;;;5112384;28;20469;-74
2023/03/24 05:52:01;;;;;;;9.15;4.93;;;;;;;;;;5111794;28;20023;-73
2023/03/24 05:54:27;;;;;;;7.65;4.80;;;;;;;;;;5112272;28;20587;-74
2023/03/24 05:56:53;;;;;;;9.27;4.50;;;;;;;;;;5105372;28;20159;-74
2023/03/24 05:59:20;;;;;;;9.57;4.72;;;;;;;;;;5111944;28;20148;-75
2023/03/24 06:01:49;;;;;;;9.95;5.30;;;;;;;;;;5111687;28;20057;-75
2023/03/24 06:04:15;;;;;;;10.75;5.22;;;;;;;;;;5110275;28;20031;-75
2023/03/24 06:06:44;;;;;;;8.18;4.50;;;;;;;;;;5113872;28;20155;-74
2023/03/24 06:09:11;;;;;;;7.47;4.57;;;;;;;;;;5106046;28;20030;-74
2023/03/24 06:11:37;;;;;;;13.90;4.80;;;;;;;;;;5111815;28;20020;-75
2023/03/24 06:14:03;;;;;;;11.10;5.13;;;;;;;;;;5109750;28;20028;-75
2023/03/24 06:16:32;;;;;;;11.35;5.20;;;;;;;;;;5112110;28;20103;-75
2023/03/24 06:18:59;;;;;;;11.40;5.05;;;;;;;;;;5112799;28;20385;-74
2023/03/24 06:21:29;;;;;;;8.00;4.70;;;;;;;;;;5111817;28;20389;-75
2023/03/24 06:23:57;;;;;;;6.50;4.30;;;;;;;;;;5112566;28;20046;-76
2023/03/24 06:26:23;;;;;;;10.27;4.50;;;;;;;;;;5115149;28;20015;-76
2023/03/24 06:28:50;;;;;;;8.18;4.35;;;;;;;;;;5106210;28;20050;-76
2023/03/24 06:31:19;;;;;;;13.07;4.20;;;;;;;;;;5124204;28;20083;-76
2023/03/24 06:33:45;;;;;;;8.63;4.60;;;;;;;;;;5126172;28;20106;-76
2023/03/24 06:36:11;;;;;;;10.25;4.40;;;;;;;;;;5140240;28;20035;-75
2023/03/24 06:38:38;;;;;;;8.52;4.45;;;;;;;;;;5129815;28;20032;-75
2023/03/24 06:41:04;;;;;;;6.55;3.72;;;;;;;;;;5114236;28;20030;-75
2023/03/24 06:43:31;;;;;;;9.07;3.65;;;;;;;;;;5112074;28;20026;-75
2023/03/24 06:45:57;;;;;;;8.40;4.15;;;;;;;;;;5119718;27;20028;-75
2023/03/24 06:48:23;;;;;;;7.28;3.60;;;;;;;;;;5121812;27;20076;-75
2023/03/24 06:50:49;;;;;;;5.65;3.45;;;;;;;;;;5117887;28;20030;-78
2023/03/24 06:53:15;;;;;;;5.80;3.60;;;;;;;;;;5116433;28;20110;-74
2023/03/24 06:55:41;;;;;;;10.93;4.45;;;;;;;;;;5116248;28;20026;-73
2023/03/24 06:58:07;;;;;;;9.30;3.58;;;;;;;;;;5116994;28;20107;-77
2023/03/24 07:00:33;;;;;;;11.57;3.55;;;;;;;;;;5116763;28;20366;-75
2023/03/24 07:03:01;;;;;;;5.40;3.10;;;;;;;;;;5116947;28;20028;-75
2023/03/24 07:05:27;;;;;;;4.95;2.50;;;;;;;;;;5118011;28;20379;-74
2023/03/24 07:07:53;;;;;;;4.97;2.67;;;;;;;;;;5116838;28;20046;-75
2023/03/24 07:10:20;;;;;;;5.60;2.08;;;;;;;;;;5113626;28;20032;-73
2023/03/24 07:12:47;;;;;;;3.90;2.00;;;;;;;;;;5115357;28;20495;-73
2023/03/24 07:15:13;;;;;;;3.67;2.60;;;;;;;;;;5115909;28;20117;-72
2023/03/24 07:17:41;;;;;;;2.85;1.90;;;;;;;;;;5115594;28;20024;-72
2023/03/24 07:20:08;;;;;;;5.43;2.10;;;;;;;;;;5115334;28;20027;-73
2023/03/24 07:22:35;;;;;;;5.70;2.30;;;;;;;;;;5114476;28;20034;-73
2023/03/24 07:25:03;;;;;;;7.03;2.55;;;;;;;;;;5115247;28;20408;-72
2023/03/24 07:27:31;;;;;;;6.25;2.13;;;;;;;;;;5114866;28;20604;-72
2023/03/24 07:29:57;;;;;;;5.93;1.90;;;;;;;;;;5096700;28;20027;-72
2023/03/24 07:32:23;;;;;;;6.65;1.63;;;;;;;;;;5114848;28;20020;-73
2023/03/24 07:34:50;;;;;;;7.53;1.90;;;;;;;;;;5115400;28;20103;-73
2023/03/24 07:37:16;;;;;;;7.93;1.50;;;;;;;;;;5115227;28;20046;-72
2023/03/24 07:39:42;;;;;;;5.93;2.00;;;;;;;;;;5115175;28;20054;-73
2023/03/24 07:42:08;;;;;;;6.10;2.08;;;;;;;;;;5114835;28;20035;-74
2023/03/24 07:44:34;;;;;;;6.60;1.90;;;;;;;;;;5114973;28;20076;-73
2023/03/24 07:47:00;;;;;;;9.45;1.65;;;;;;;;;;5115303;28;20024;-73
2023/03/24 07:49:26;;;;;;;4.95;1.85;;;;;;;;;;5096538;28;20034;-73
2023/03/24 07:51:52;;;;;;;9.30;1.90;;;;;;;;;;5114922;28;20020;-72
2023/03/24 07:54:18;;;;;;;12.57;2.40;;;;;;;;;;5114189;28;20031;-71
2023/03/24 07:56:44;;;;;;;19.65;2.55;;;;;;;;;;5113713;28;20029;-72
2023/03/24 07:59:10;;;;;;;12.68;2.63;;;;;;;;;;5114201;28;20019;-73
2023/03/24 08:01:37;;;;;;;16.85;2.25;;;;;;;;;;5113629;28;20034;-73
2023/03/24 08:04:05;;;;;;;19.08;2.88;;;;;;;;;;5113503;28;20027;-72
2023/03/24 08:06:31;;;;;;;14.20;2.65;;;;;;;;;;5112939;28;20493;-74
2023/03/24 08:08:57;;;;;;;16.67;5.68;;;;;;;;;;5113051;28;20028;-73
2023/03/24 08:11:22;;;;;;;14.93;2.70;;;;;;;;;;5113406;28;20234;-73
2023/03/24 08:13:48;;;;;;;27.15;7.47;;;;;;;;;;5112969;28;20492;-73
2023/03/24 08:16:14;;;;;;;9.68;2.30;;;;;;;;;;5112965;28;20080;-73
2023/03/24 08:18:40;;;;;;;14.75;2.50;;;;;;;;;;5113445;28;20027;-72
2023/03/24 08:21:06;;;;;;;14.65;2.90;;;;;;;;;;5113276;28;20019;-72
2023/03/24 08:23:32;;;;;;;12.38;2.40;;;;;;;;;;5112576;28;20099;-72
2023/03/24 08:25:59;;;;;;;18.10;2.95;;;;;;;;;;5113348;28;20148;-72
2023/03/24 08:28:24;;;;;;;14.55;2.75;;;;;;;;;;5095025;28;20019;-71
2023/03/24 08:30:50;;;;;;;18.25;3.25;;;;;;;;;;5115104;28;20106;-70
2023/03/24 08:33:16;;;;;;;20.73;3.90;;;;;;;;;;5113567;28;20032;-72
2023/03/24 08:35:44;;;;;;;20.38;2.80;;;;;;;;;;5113128;28;20048;-71
2023/03/24 08:38:10;;;;;;;17.35;3.22;;;;;;;;;;5112878;28;20030;-73
2023/03/24 08:40:37;;;;;;;20.90;4.15;;;;;;;;;;5112629;28;20034;-72
2023/03/24 08:43:07;;;;;;;13.45;2.40;;;;;;;;;;5112294;28;20107;-71
2023/03/24 08:45:33;;;;;;;15.02;2.53;;;;;;;;;;5112857;28;20085;-72
2023/03/24 08:48:00;;;;;;;15.77;3.17;;;;;;;;;;5112344;28;20030;-72
2023/03/24 08:50:29;;;;;;;14.15;2.95;;;;;;;;;;5112686;28;20035;-72
2023/03/24 08:52:55;;;;;;;18.65;3.28;;;;;;;;;;5112255;28;20023;-72
2023/03/24 08:55:22;;;;;;;13.73;3.05;;;;;;;;;;5112590;28;20059;-72
2023/03/24 08:57:48;;;;;;;15.43;3.00;;;;;;;;;;5114016;28;20019;-75
2023/03/24 09:00:14;;;;;;;18.80;3.20;;;;;;;;;;5115204;28;20031;-75
2023/03/24 09:02:41;;;;;;;15.57;2.60;;;;;;;;;;5114704;28;20488;-75
2023/03/24 09:05:07;;;;;;;19.13;2.63;;;;;;;;;;5114469;28;20027;-75
2023/03/24 09:07:33;;;;;;;18.45;3.88;;;;;;;;;;5113774;28;20496;-75
2023/03/24 09:09:59;;;;;;;16.10;3.28;;;;;;;;;;5113856;28;20507;-75
2023/03/24 09:12:26;;;;;;;16.50;3.20;;;;;;;;;;5114416;28;20034;-75
2023/03/24 09:14:52;;;;;;;24.17;3.35;;;;;;;;;;5114475;28;20028;-73
2023/03/24 09:17:17;;;;;;;15.18;2.58;;;;;;;;;;5113646;28;20079;-75
2023/03/24 09:19:44;;;;;;;17.13;3.78;;;;;;;;;;5113709;28;20030;-77
2023/03/24 09:22:10;;;;;;;16.38;3.13;;;;;;;;;;5112732;28;20020;-73
2023/03/24 09:24:36;;;;;;;18.58;2.90;;;;;;;;;;5113369;28;20019;-73
2023/03/24 09:27:02;;;;;;;16.42;3.33;;;;;;;;;;5114017;28;20444;-74
2023/03/24 09:29:29;;;;;;;19.77;3.90;;;;;;;;;;5113377;28;20107;-73
2023/03/24 09:31:55;;;;;;;15.98;2.92;;;;;;;;;;5110204;28;20043;-73
2023/03/24 09:34:22;;;;;;;19.38;3.00;;;;;;;;;;5113360;28;20016;-73
2023/03/24 09:36:48;;;;;;;18.75;2.75;;;;;;;;;;5132929;27;20027;-72
2023/03/24 09:39:14;;;;;;;20.75;3.28;;;;;;;;;;5134295;27;20031;-75
2023/03/24 09:41:44;;;;;;;13.40;2.70;;;;;;;;;;5134420;27;20031;-73
2023/03/24 09:44:39;;;;;;;18.50;2.83;;;;;;;;;;5135788;27;20492;-72
2023/03/24 09:47:05;;;;;;;20.10;2.97;;;;;;;;;;5115931;27;20054;-73
2023/03/24 09:49:35;;;;;;;19.10;3.28;;;;;;;;;;5137948;27;20059;-73
2023/03/24 09:52:05;;;;;;;14.18;2.58;;;;;;;;;;5135679;27;20155;-74
2023/03/24 09:54:44;;;;;;;19.20;3.10;;;;;;;;;;5117672;27;20027;-75
2023/03/24 09:57:31;;;;;;;18.77;2.78;;;;;;;;;;5135210;27;20083;-72
2023/03/24 09:59:56;;;;;;;21.60;3.50;;;;;;;;;;5132837;27;20020;-73
2023/03/24 10:02:23;;;;;;;14.05;2.65;;;;;;;;;;5132973;27;20039;-72
2023/03/24 10:04:49;;;;;;;17.52;3.13;;;;;;;;;;5133688;27;20066;-76
2023/03/24 10:07:15;;;;;;;21.38;2.97;;;;;;;;;;5133126;28;20031;-73
2023/03/24 10:09:43;;;;;;;19.17;3.17;;;;;;;;;;5132864;28;20027;-71
2023/03/24 10:12:33;;;;;;;22.58;3.03;;;;;;;;;;5132676;27;20026;-71
2023/03/24 10:15:18;;;;;;;17.77;2.95;;;;;;;;;;5132964;28;20019;-71
2023/03/24 10:17:54;;;;;;;17.00;2.78;;;;;;;;;;5132919;27;20023;-72
2023/03/24 10:20:31;;;;;;;16.38;2.90;;;;;;;;;;5136477;27;20030;-71
2023/03/24 10:23:09;;;;;;;20.13;3.13;;;;;;;;;;5137430;27;20033;-71
2023/03/24 10:25:36;;;;;;;14.57;2.38;;;;;;;;;;5137454;27;20049;-71
2023/03/24 10:28:14;;;;;;;18.45;2.83;;;;;;;;;;5137051;27;20019;-71
2023/03/24 10:30:41;;;;;;;21.05;2.75;;;;;;;;;;5136777;27;20019;-70
2023/03/24 10:33:10;;;;;;;20.25;3.40;;;;;;;;;;5136342;27;20035;-72
2023/03/24 10:35:38;;;;;;;19.33;2.95;;;;;;;;;;5136539;27;20019;-72
2023/03/24 10:38:11;;;;;;;18.20;2.90;;;;;;;;;;5136784;27;20020;-71
2023/03/24 10:40:40;;;;;;;15.20;3.03;;;;;;;;;;5136533;27;20053;-73
2023/03/24 10:43:06;;;;;;;18.42;3.00;;;;;;;;;;5136729;27;20065;-72
2023/03/24 10:45:33;;;;;;;19.75;2.75;;;;;;;;;;5136704;27;20027;-73
2023/03/24 10:48:00;;;;;;;17.25;3.80;;;;;;;;;;5136930;27;20034;-73
2023/03/24 10:50:28;;;;;;;18.27;2.95;;;;;;;;;;5136685;27;20121;-73
2023/03/24 10:52:54;;;;;;;22.65;3.15;;;;;;;;;;5139401;27;20021;-74
2023/03/24 10:55:22;;;;;;;18.85;3.50;;;;;;;;;;5129387;27;20019;-73
2023/03/24 10:57:55;;;;;;;17.95;2.95;;;;;;;;;;5126545;27;20023;-73
2023/03/24 11:00:28;;;;;;;14.95;2.80;;;;;;;;;;5145881;27;20027;-74
2023/03/24 11:03:24;;;;;;;24.20;3.00;;;;;;;;;;5144505;27;20453;-73
2023/03/24 11:05:57;;;;;;;12.50;2.67;;;;;;;;;;5117595;27;20035;-72
2023/03/24 11:08:27;;;;;;;13.45;2.97;;;;;;;;;;5136084;27;20445;-73
2023/03/24 11:10:53;;;;;;;18.70;3.00;;;;;;;;;;5136554;27;20551;-71
2023/03/24 11:13:29;;;;;;;14.48;3.10;;;;;;;;;;5136417;27;20072;-73
2023/03/24 11:16:09;;;;;;;17.85;2.90;;;;;;;;;;5136421;27;20015;-73
2023/03/24 11:18:36;;;;;;;17.25;2.90;;;;;;;;;;5136612;27;20143;-76
2023/03/24 11:21:03;;;;;;;24.90;3.65;;;;;;;;;;5138040;27;20047;-76
2023/03/24 11:23:44;;;;;;;20.38;3.28;;;;;;;;;;5121182;27;20026;-72
2023/03/24 11:26:13;;;;;;;19.75;3.00;;;;;;;;;;5138670;27;20123;-73
2023/03/24 11:28:41;;;;;;;16.08;3.08;;;;;;;;;;5139454;27;20034;-72
2023/03/24 11:31:08;;;;;;;17.45;2.60;;;;;;;;;;5137493;27;20029;-74
2023/03/24 11:33:40;;;;;;;17.05;2.80;;;;;;;;;;5119375;27;20019;-73
2023/03/24 11:36:26;;;;;;;14.30;2.75;;;;;;;;;;5137038;27;20016;-72
2023/03/24 11:39:02;;;;;;;18.60;3.20;;;;;;;;;;5136525;27;20015;-74
2023/03/24 11:41:28;;;;;;;13.05;2.95;;;;;;;;;;5137652;27;20027;-72
2023/03/24 11:44:14;;;;;;;16.10;2.72;;;;;;;;;;5135708;27;20179;-73
2023/03/24 11:46:41;;;;;;;11.75;2.47;;;;;;;;;;5134941;27;20494;-73
2023/03/24 11:49:09;;;;;;;12.70;2.95;;;;;;;;;;5136916;27;20072;-72
2023/03/24 11:51:37;;;;;;;16.85;3.28;;;;;;;;;;5125353;27;20034;-72
2023/03/24 11:54:05;;;;;;;15.68;2.85;;;;;;;;;;5138211;27;20026;-75
2023/03/24 11:56:43;;;;;;;12.35;2.63;;;;;;;;;;5135973;27;20011;-72
2023/03/24 11:59:29;;;;;;;11.70;2.95;;;;;;;;;;5135500;27;20403;-74
2023/03/24 12:02:01;;;;;;;14.88;3.03;;;;;;;;;;5140450;27;20360;-74
2023/03/24 12:04:48;;;;;;;13.52;2.90;;;;;;;;;;5140807;27;20038;-74
2023/03/24 12:07:34;;;;;;;13.85;3.25;;;;;;;;;;5068619;27;20100;-73
2023/03/24 12:10:15;;;;;;;18.33;3.40;;;;;;;;;;5134252;27;20051;-72
2023/03/24 12:13:00;;;;;;;19.52;3.40;;;;;;;;;;5134093;27;20023;-73
2023/03/24 12:15:36;;;;;;;17.15;3.00;;;;;;;;;;5134488;27;20030;-73
2023/03/24 12:18:02;;;;;;;22.98;4.15;;;;;;;;;;5134417;27;20019;-73
2023/03/24 12:20:37;;;;;;;20.75;3.78;;;;;;;;;;5134224;27;20499;-73
2023/03/24 12:23:22;;;;;;;16.80;3.65;;;;;;;;;;5134335;27;20023;-72
2023/03/24 12:26:09;;;;;;;19.00;3.35;;;;;;;;;;5134241;27;20106;-72
2023/03/24 12:28:54;;;;;;;13.25;3.05;;;;;;;;;;5117132;27;20160;-73
2023/03/24 12:31:27;;;;;;;18.10;3.00;;;;;;;;;;5133976;27;20023;-73
2023/03/24 12:34:19;;;;;;;14.43;3.10;;;;;;;;;;5137485;27;20022;-73
2023/03/24 12:37:01;;;;;;;13.15;2.80;;;;;;;;;;5120696;27;20034;-74
2023/03/24 12:39:31;;;;;;;11.18;2.70;;;;;;;;;;5137618;27;20023;-74
2023/03/24 12:42:03;;;;;;;18.77;4.53;;;;;;;;;;5133479;27;20038;-72
2023/03/24 12:44:41;;;;;;;14.48;3.80;;;;;;;;;;5134779;27;20027;-72
2023/03/24 12:47:07;;;;;;;13.73;3.33;;;;;;;;;;5134618;27;20107;-76
2023/03/24 12:49:33;;;;;;;15.77;3.55;;;;;;;;;;5133939;27;20332;-73
2023/03/24 12:52:00;;;;;;;21.33;4.05;;;;;;;;;;5133419;27;20023;-73
2023/03/24 12:54:26;;;;;;;16.85;3.40;;;;;;;;;;5133998;27;20038;-74
2023/03/24 12:57:04;;;;;;;19.38;4.18;;;26.20;55.90;;;;;;5133865;27;20050;-73
2023/03/24 12:59:38;;;;;;;24.15;4.40;;;26.50;58.50;;;;;;5133972;27;20015;-72
2023/03/24 13:02:22;;;;;;;15.70;3.90;;;;;;;;;;5133388;27;20020;-72
2023/03/24 13:04:51;;;;;;;11.60;2.85;;;27.40;56.10;;;;;;5133851;27;20034;-73
2023/03/24 13:07:20;;;;;;;17.55;3.72;;;25.90;56.60;;;;;;5133256;27;20445;-76
2023/03/24 13:10:07;;;;;;;15.20;3.67;;;25.90;57.30;;;;;;5133351;27;20039;-73
2023/03/24 13:12:44;;;;;;;16.25;3.22;;;26.80;56.30;;;;;;5132905;27;20614;-72
2023/03/24 13:15:24;;;;;;;15.80;3.63;;;27.70;53.40;;;;;;5133556;27;20033;-72
2023/03/24 13:18:11;;;;;;;16.02;3.42;;;28.50;50.90;;;;;;5133360;27;20019;-72
2023/03/24 13:20:54;;;;;;;13.52;3.15;;;28.00;49.30;;;;;;5133349;27;20011;-73
2023/03/24 13:23:41;;;;;;;14.50;2.85;;;26.10;49.90;;;;;;5132959;27;20027;-74
2023/03/24 13:26:23;;;;;;;15.27;2.67;;;25.00;50.70;;;;;;5133152;27;20122;-72
2023/03/24 13:29:13;;;;;;;15.15;3.10;;;25.00;51.70;;;;;;5133073;27;20031;-73
2023/03/24 13:31:49;;;;;;;13.35;2.90;;;25.60;49.60;;;;;;5132676;27;20063;-72
2023/03/24 13:34:33;;;;;;;15.60;2.92;;;25.10;49.50;;;;;;5133121;27;20026;-71
2023/03/24 13:37:00;;;;;;;14.95;3.60;;;25.20;50.50;;;;;;5133086;27;20376;-74
2023/03/24 13:39:27;;;;;;;17.45;3.33;;;25.60;51.10;;;;;;5132800;27;20023;-72
2023/03/24 13:41:56;;;;;;;12.15;3.35;;;26.60;49.80;;;;;;5132997;27;20023;-76
2023/03/24 13:44:39;;;;;;;12.93;3.38;;;27.10;48.30;;;;;;5133248;27;20613;-75
2023/03/24 13:47:14;;;;;;;18.45;2.75;;;27.70;47.70;;;;;;5133306;27;20049;-77
2023/03/24 13:49:44;;;;;;;13.70;3.22;;;28.40;46.30;;;;;;5133949;27;20551;-75
2023/03/24 13:52:27;;;;;;;12.25;3.20;;;27.70;45.40;;;;;;5132615;27;20023;-77
2023/03/24 13:54:57;;;;;;;14.35;3.35;;;27.30;46.60;;;;;;5133302;27;20042;-75
2023/03/24 13:57:23;;;;;;;20.88;3.70;;;26.80;45.90;;;;;;5133583;27;20485;-74
2023/03/24 14:00:19;;;;;;;12.80;2.70;;;27.10;46.10;;;;;;5113129;27;20430;-71
2023/03/24 14:02:53;;;;;;;10.52;2.47;;;27.70;44.50;;;;;;5111979;28;20358;-71
2023/03/24 14:05:22;;;;;;;17.45;3.15;;;27.90;43.30;;;;;;5112192;28;20035;-72
2023/03/24 14:08:13;;;;;;;13.57;2.97;;;27.80;42.40;;;;;;5109759;28;20081;-73
2023/03/24 14:10:44;;;;;;;13.02;2.60;;;27.10;42.10;;;;;;5098097;28;20379;-74
2023/03/24 14:13:13;;;;;;;13.63;2.88;;;26.80;43.10;;;;;;5115353;28;20028;-73
2023/03/24 14:15:50;;;;;;;11.30;2.67;;;26.70;43.30;;;;;;5122564;28;20028;-73
2023/03/24 14:18:39;;;;;;;13.82;3.47;;;26.60;43.30;;;;;;5115276;28;20019;-72
2023/03/24 14:21:06;;;;;;;14.30;2.90;;;26.90;43.60;;;;;;5099487;28;20095;-75
2023/03/24 14:23:52;;;;;;;13.00;2.30;;;27.30;43.40;;;;;;5112610;28;20454;-73
2023/03/24 14:26:20;;;;;;;12.23;2.45;;;27.80;43.00;;;;;;5109201;28;20603;-73
2023/03/24 14:28:51;;;;;;;8.73;2.67;;;27.70;42.30;;;;;;5112110;28;20023;-72
2023/03/24 14:31:32;;;;;;;13.38;3.20;;;27.20;42.50;;;;;;5113214;28;20465;-75
2023/03/24 14:34:05;;;;;;;15.07;3.22;;;26.50;42.20;;;;;;5112179;28;20032;-73
2023/03/24 14:36:34;;;;;;;14.05;2.80;;;25.60;43.40;;;;;;5112195;28;20008;-72